Time;durP1;ratioP1;P1;durP2;ratioP2;P2;SDS_P1;SDS_P2;PMS_P1;PMS_P2;Temp;Humidity;BMP_temperature;BMP_pressure;BME280_temperature;BME280_humidity;BME280_pressure;Samples;Min_cycle;Max_cycle;Signal;HPM_P1;HPM_P2
2023/12/28 00:00:48;;;;;;;97.60;66.43;;;;;;;;;;5031976;28;20033;-64
2023/12/28 00:03:14;;;;;;;104.97;71.97;;;;;;;;;;5046955;28;20032;-64
2023/12/28 00:05:40;;;;;;;106.90;72.53;;;;;;;;;;5032121;28;20025;-65
2023/12/28 00:08:06;;;;;;;100.97;67.88;;;;;;;;;;5031816;28;20018;-65
2023/12/28 00:10:32;;;;;;;102.20;68.22;;;;;;;;;;5031562;28;20517;-64
2023/12/28 00:12:58;;;;;;;100.53;67.22;;;;;;;;;;5031431;28;20100;-64
2023/12/28 00:15:24;;;;;;;95.82;67.25;;;;;;;;;;5031592;28;20052;-65
2023/12/28 00:17:50;;;;;;;93.38;63.75;;;;;;;;;;5106581;22;20088;-72
2023/12/28 00:20:16;;;;;;;100.32;67.50;;;;;;;;;;5028828;28;20041;-72
2023/12/28 00:22:42;;;;;;;97.32;66.03;;;;;;;;;;5029652;28;20095;-72
2023/12/28 00:25:08;;;;;;;90.25;62.10;;;;;;;;;;5030015;28;20057;-72
2023/12/28 00:27:35;;;;;;;88.32;58.90;;;;;;;;;;5029669;28;20108;-72
2023/12/28 00:30:01;;;;;;;89.25;58.75;;;;;;;;;;5029427;28;20045;-71
2023/12/28 00:32:27;;;;;;;82.45;55.92;;;;;;;;;;5020878;28;20037;-71
2023/12/28 00:34:53;;;;;;;82.57;57.70;;;;;;;;;;5029699;28;20443;-71
2023/12/28 00:37:19;;;;;;;88.00;59.15;;;;;;;;;;5028626;28;20108;-72
2023/12/28 00:39:46;;;;;;;87.55;60.50;;;;;;;;;;5029840;28;20033;-71
2023/12/28 00:42:12;;;;;;;82.35;56.33;;;;;;;;;;5030259;28;20025;-70
2023/12/28 00:44:38;;;;;;;85.05;58.95;;;;;;;;;;5028250;28;20048;-72
2023/12/28 00:47:06;;;;;;;81.03;56.17;;;;;;;;;;5029729;28;20108;-72
2023/12/28 00:49:32;;;;;;;81.18;55.90;;;;;;;;;;5029835;28;20108;-70
2023/12/28 00:51:58;;;;;;;74.43;52.78;;;;;;;;;;5029649;28;20183;-70
2023/12/28 00:54:24;;;;;;;74.13;50.92;;;;;;;;;;5029443;28;20079;-71
2023/12/28 00:56:50;;;;;;;77.22;51.55;;;;;;;;;;5029473;28;20026;-72
2023/12/28 00:59:16;;;;;;;74.70;50.83;;;;;;;;;;5029528;28;20052;-73
2023/12/28 01:01:42;;;;;;;79.20;47.65;;;;;;;;;;5027761;28;20505;-74
2023/12/28 01:04:08;;;;;;;84.32;55.83;;;;;;;;;;5029455;28;20175;-72
2023/12/28 01:06:34;;;;;;;86.70;59.67;;;;;;;;;;5029542;28;20652;-72
2023/12/28 01:09:00;;;;;;;90.78;61.90;;;;;;;;;;5027942;28;20032;-71
2023/12/28 01:11:26;;;;;;;91.97;60.47;;;;;;;;;;5029362;28;20025;-70
2023/12/28 01:13:52;;;;;;;86.90;58.72;;;;;;;;;;5029714;28;20104;-70
2023/12/28 01:16:18;;;;;;;88.10;59.67;;;;;;;;;;5027828;28;20025;-71
2023/12/28 01:18:44;;;;;;;95.40;63.22;;;;;;;;;;5029359;28;20117;-70
2023/12/28 01:21:10;;;;;;;88.80;58.92;;;;;;;;;;5029282;28;20100;-69
2023/12/28 01:23:36;;;;;;;85.00;57.70;;;;;;;;;;5029140;28;20014;-69
2023/12/28 01:26:02;;;;;;;90.10;60.50;;;;;;;;;;5029469;28;20417;-69
2023/12/28 01:28:28;;;;;;;84.00;58.17;;;;;;;;;;5029182;28;20045;-69
2023/12/28 01:30:54;;;;;;;82.95;57.42;;;;;;;;;;5029163;28;20072;-70
2023/12/28 01:33:20;;;;;;;82.13;56.45;;;;;;;;;;5029439;28;20025;-72
2023/12/28 01:35:46;;;;;;;85.40;58.25;;;;;;;;;;5029263;28;20029;-71
2023/12/28 01:38:12;;;;;;;77.85;54.30;;;;;;;;;;5029189;28;20026;-72
2023/12/28 01:40:38;;;;;;;81.03;56.33;;;;;;;;;;5029021;28;20030;-71
2023/12/28 01:43:04;;;;;;;78.80;55.00;;;;;;;;;;5029298;28;20026;-71
2023/12/28 01:45:30;;;;;;;77.22;54.25;;;;;;;;;;5029059;28;20037;-71
2023/12/28 01:47:58;;;;;;;79.20;54.22;;;;;;;;;;5028994;28;20026;-72
2023/12/28 01:50:24;;;;;;;77.93;53.10;;;;;;;;;;5031920;28;20085;-71
2023/12/28 01:52:51;;;;;;;76.72;53.10;;;;;;;;;;5032937;28;20084;-70
2023/12/28 01:55:17;;;;;;;75.90;51.95;;;;;;;;;;5032778;28;20053;-71
2023/12/28 01:57:43;;;;;;;73.30;52.22;;;;;;;;;;5034193;28;20030;-72
2023/12/28 02:00:09;;;;;;;75.78;51.85;;;;;;;;;;5034132;28;20395;-71
2023/12/28 02:02:35;;;;;;;75.28;52.40;;;;;;;;;;5034183;28;20029;-73
2023/12/28 02:05:02;;;;;;;78.25;51.35;;;;;;;;;;5034048;28;20097;-73
2023/12/28 02:07:30;;;;;;;74.97;50.55;;;;;;;;;;5033790;28;20395;-73
2023/12/28 02:09:56;;;;;;;70.53;49.42;;;;;;;;;;5033865;28;20030;-72
2023/12/28 02:12:22;;;;;;;71.68;49.42;;;;;;;;;;5034285;28;20025;-71
2023/12/28 02:14:48;;;;;;;71.57;49.75;;;;;;;;;;5034005;28;20087;-71
2023/12/28 02:17:20;;;;;;;68.65;46.97;;;;;;;;;;5033935;28;20501;-71
2023/12/28 02:19:50;;;;;;;70.53;47.85;;;;;;;;;;5033455;28;20069;-71
2023/12/28 02:22:16;;;;;;;69.38;47.20;;;;;;;;;;5033682;28;20628;-72
2023/12/28 02:24:57;;;;;;;66.38;46.53;;;;;;;;;;5033856;28;20025;-72
2023/12/28 02:27:23;;;;;;;67.10;45.97;;;;;;;;;;5033574;28;20029;-71
2023/12/28 02:29:49;;;;;;;63.92;44.15;;;;;;;;;;5032150;28;20034;-73
2023/12/28 02:32:16;;;;;;;65.00;44.92;;;;;;;;;;5033426;28;20060;-71
2023/12/28 02:34:43;;;;;;;66.15;44.65;;;;;;;;;;5033654;28;20041;-71
2023/12/28 02:37:11;;;;;;;66.82;46.33;;;;;;;;;;5032242;28;20116;-72
2023/12/28 02:39:38;;;;;;;66.97;45.25;;;;;;;;;;5031831;28;20144;-71
2023/12/28 02:42:04;;;;;;;62.83;42.40;;;;;;;;;;5033618;28;20022;-73
2023/12/28 02:44:30;;;;;;;60.92;40.67;;;;;;;;;;5033344;28;20018;-72
2023/12/28 02:46:56;;;;;;;62.85;42.13;;;;;;;;;;5033460;28;20514;-72
2023/12/28 02:49:22;;;;;;;59.45;40.50;;;;;;;;;;5031847;28;20026;-72
2023/12/28 02:51:48;;;;;;;57.78;40.72;;;;;;;;;;5033394;28;20486;-73
2023/12/28 02:54:14;;;;;;;57.63;39.50;;;;;;;;;;5032013;28;20033;-71
2023/12/28 02:56:41;;;;;;;56.97;38.67;;;;;;;;;;5033276;28;20025;-71
2023/12/28 02:59:07;;;;;;;56.95;38.67;;;;;;;;;;5032887;28;20032;-72
2023/12/28 03:01:33;;;;;;;59.78;40.25;;;;;;;;;;5032101;28;20029;-71
2023/12/28 03:03:59;;;;;;;59.67;40.03;;;;;;;;;;5033140;28;20104;-72
2023/12/28 03:06:25;;;;;;;56.42;38.50;;;;;;;;;;5033150;28;20021;-71
2023/12/28 03:08:51;;;;;;;57.38;38.58;;;;;;;;;;5033067;28;20025;-72
2023/12/28 03:11:17;;;;;;;53.50;37.15;;;;;;;;;;5033198;28;20089;-72
2023/12/28 03:13:43;;;;;;;51.15;35.92;;;;;;;;;;5034182;28;20029;-74
2023/12/28 03:16:09;;;;;;;50.88;36.30;;;;;;;;;;5037678;28;20489;-73
2023/12/28 03:18:35;;;;;;;54.10;36.30;;;;;;;;;;5037865;28;20049;-74
2023/12/28 03:21:01;;;;;;;48.63;32.95;;;;;;;;;;5033392;28;20102;-69
2023/12/28 03:23:27;;;;;;;52.72;35.13;;;;;;;;;;5031543;28;20026;-70
2023/12/28 03:25:53;;;;;;;46.50;32.53;;;;;;;;;;5032648;28;20040;-69
2023/12/28 03:28:20;;;;;;;50.28;34.60;;;;;;;;;;5031590;28;20025;-70
2023/12/28 03:30:46;;;;;;;48.45;34.30;;;;;;;;;;5011303;28;20049;-72
2023/12/28 03:33:12;;;;;;;46.22;32.47;;;;;;;;;;5029020;28;20025;-69
2023/12/28 03:35:38;;;;;;;46.72;33.25;;;;;;;;;;5032386;28;20091;-71
2023/12/28 03:38:04;;;;;;;49.45;33.70;;;;;;;;;;5032369;28;20033;-71
2023/12/28 03:40:30;;;;;;;41.78;30.98;;;;;;;;;;5031990;28;20513;-71
2023/12/28 03:42:56;;;;;;;44.90;31.50;;;;;;;;;;5030893;28;20021;-71
2023/12/28 03:45:22;;;;;;;46.60;32.65;;;;;;;;;;5032185;28;20026;-71
2023/12/28 03:47:47;;;;;;;46.92;33.28;;;;;;;;;;5032017;28;20079;-72
2023/12/28 03:50:13;;;;;;;47.42;30.88;;;;;;;;;;5031942;28;20025;-69
2023/12/28 03:52:39;;;;;;;40.35;29.02;;;;;;;;;;5032126;28;20029;-71
2023/12/28 03:55:05;;;;;;;43.13;30.60;;;;;;;;;;5032169;28;20034;-72
2023/12/28 03:57:31;;;;;;;44.88;30.67;;;;;;;;;;5029200;28;20021;-72
2023/12/28 03:59:57;;;;;;;41.45;29.95;;;;;;;;;;5031711;28;20026;-69
2023/12/28 04:02:24;;;;;;;41.75;28.15;;;;;;;;;;5031843;28;20033;-70
2023/12/28 04:04:51;;;;;;;41.95;28.15;;;;;;;;;;5031926;28;20486;-70
2023/12/28 04:07:17;;;;;;;43.03;28.80;;;;;;;;;;5031787;28;20479;-71
2023/12/28 04:09:43;;;;;;;40.60;27.35;;;;;;;;;;5031441;28;20022;-70
2023/12/28 04:12:09;;;;;;;37.80;27.25;;;;;;;;;;5030302;28;20491;-71
2023/12/28 04:14:36;;;;;;;35.63;26.55;;;;;;;;;;5031610;28;20108;-70
2023/12/28 04:17:01;;;;;;;38.17;26.02;;;;;;;;;;5031675;28;20033;-71
2023/12/28 04:19:27;;;;;;;37.90;26.17;;;;;;;;;;5030039;28;20033;-72
2023/12/28 04:21:55;;;;;;;37.00;25.38;;;;;;;;;;5031858;28;20070;-72
2023/12/28 04:24:21;;;;;;;35.80;25.67;;;;;;;;;;5030492;28;20017;-74
2023/12/28 04:26:47;;;;;;;34.45;25.13;;;;;;;;;;5011871;28;20033;-73
2023/12/28 04:29:13;;;;;;;33.25;23.75;;;;;;;;;;5011009;28;20018;-74
2023/12/28 04:31:42;;;;;;;34.50;24.73;;;;;;;;;;5010611;28;20171;-74
2023/12/28 04:34:08;;;;;;;36.25;25.60;;;;;;;;;;5011800;28;20029;-74
2023/12/28 04:36:40;;;;;;;32.67;23.08;;;;;;;;;;5011686;28;20021;-72
2023/12/28 04:39:06;;;;;;;33.20;23.27;;;;;;;;;;5011668;28;20022;-73
2023/12/28 04:41:32;;;;;;;33.22;23.10;;;;;;;;;;5011785;28;20439;-73
2023/12/28 04:43:58;;;;;;;31.25;21.50;;;;;;;;;;5011902;28;20109;-74
2023/12/28 04:46:24;;;;;;;31.10;22.30;;;;;;;;;;5010551;28;20101;-73
2023/12/28 04:48:50;;;;;;;29.92;21.10;;;;;;;;;;5011671;28;20044;-74
2023/12/28 04:51:16;;;;;;;31.88;21.92;;;;;;;;;;5011360;28;20026;-73
2023/12/28 04:53:42;;;;;;;29.77;21.17;;;;;;;;;;5011490;28;20046;-71
2023/12/28 04:56:08;;;;;;;34.85;20.63;;;;;;;;;;5011550;28;20036;-72
2023/12/28 04:58:34;;;;;;;31.63;21.50;;;;;;;;;;5011414;28;20033;-71
2023/12/28 05:01:02;;;;;;;27.73;19.98;;;;;;;;;;5011319;28;20030;-71
2023/12/28 05:03:28;;;;;;;30.45;20.38;;;;;;;;;;5011365;28;20018;-71
2023/12/28 05:05:54;;;;;;;27.63;19.73;;;;;;;;;;5011442;28;20041;-74
2023/12/28 05:08:20;;;;;;;28.30;19.77;;;;;;;;;;5011161;28;20026;-74
2023/12/28 05:10:46;;;;;;;25.88;18.80;;;;;;;;;;5011130;28;20164;-72
2023/12/28 05:13:12;;;;;;;26.38;19.15;;;;;;;;;;5011524;28;20040;-71
2023/12/28 05:15:38;;;;;;;23.33;17.13;;;;;;;;;;5021677;28;20057;-72
2023/12/28 05:18:06;;;;;;;24.70;18.00;;;;;;;;;;5030824;28;20029;-72
2023/12/28 05:20:32;;;;;;;25.88;18.27;;;;;;;;;;5030790;28;20104;-73
2023/12/28 05:22:58;;;;;;;24.90;17.80;;;;;;;;;;5030901;28;20104;-71
2023/12/28 05:25:24;;;;;;;26.88;18.75;;;;;;;;;;5034369;28;20022;-72
2023/12/28 05:27:50;;;;;;;24.08;17.13;;;;;;;;;;5034678;28;20029;-71
2023/12/28 05:30:16;;;;;;;24.70;16.90;;;;;;;;;;5017819;28;20034;-71
2023/12/28 05:32:43;;;;;;;24.83;17.40;;;;;;;;;;5013872;28;20034;-72
2023/12/28 05:35:09;;;;;;;23.35;16.83;;;;;;;;;;5015468;28;20419;-72
2023/12/28 05:37:35;;;;;;;28.83;17.02;;;;;;;;;;5014480;28;20022;-73
2023/12/28 05:40:01;;;;;;;24.08;16.80;;;;;;;;;;5014989;28;20026;-73
2023/12/28 05:42:27;;;;;;;25.73;15.50;;;;;;;;;;5014962;28;20026;-70
2023/12/28 05:44:53;;;;;;;26.25;16.55;;;;;;;;;;5014876;28;20119;-70
2023/12/28 05:47:19;;;;;;;22.27;15.48;;;;;;;;;;5013362;28;20499;-71
2023/12/28 05:49:45;;;;;;;20.85;14.55;;;;;;;;;;5014585;28;20030;-71
2023/12/28 05:52:14;;;;;;;22.58;15.05;;;;;;;;;;5014424;28;20107;-71
2023/12/28 05:54:41;;;;;;;20.25;14.52;;;;;;;;;;5014887;28;20026;-72
2023/12/28 05:57:08;;;;;;;22.70;15.63;;;;;;;;;;5014487;28;20487;-73
2023/12/28 05:59:37;;;;;;;20.92;14.35;;;;;;;;;;5014277;28;20025;-73
2023/12/28 06:02:03;;;;;;;19.00;13.63;;;;;;;;;;5014469;28;20026;-73
2023/12/28 06:04:29;;;;;;;22.27;15.35;;;;;;;;;;5014370;28;20073;-73
2023/12/28 06:06:55;;;;;;;17.65;13.07;;;;;;;;;;5014289;28;20470;-73
2023/12/28 06:09:21;;;;;;;19.42;12.95;;;;;;;;;;5014445;28;20109;-72
2023/12/28 06:11:47;;;;;;;19.35;12.93;;;;;;;;;;5014374;28;20565;-72
2023/12/28 06:14:13;;;;;;;18.30;12.13;;;;;;;;;;5014455;28;20030;-73
2023/12/28 06:16:39;;;;;;;18.95;13.30;;;;;;;;;;5014332;28;20034;-73
2023/12/28 06:19:05;;;;;;;19.38;12.02;;;;;;;;;;5048569;22;20041;-64
2023/12/28 06:21:32;;;;;;;18.55;12.50;;;;;;;;;;5032910;28;20397;-64
2023/12/28 06:23:58;;;;;;;16.75;12.02;;;;;;;;;;5025523;28;20057;-64
2023/12/28 06:26:25;;;;;;;16.33;11.60;;;;;;;;;;5024394;28;20026;-64
2023/12/28 06:28:50;;;;;;;16.98;11.27;;;;;;;;;;5027041;28;20018;-64
2023/12/28 06:31:17;;;;;;;14.55;10.95;;;;;;;;;;5032558;28;20029;-63
2023/12/28 06:33:43;;;;;;;15.68;10.95;;;;;;;;;;5021266;28;20410;-64
2023/12/28 06:36:10;;;;;;;17.25;11.07;;;;;;;;;;5031346;28;20014;-63
2023/12/28 06:38:36;;;;;;;17.63;11.70;;;;;;;;;;5032306;28;20486;-63
2023/12/28 06:41:03;;;;;;;15.95;10.80;;;;;;;;;;5032497;28;20032;-64
2023/12/28 06:43:29;;;;;;;15.07;10.20;;;;;;;;;;5032618;28;20055;-63
2023/12/28 06:45:55;;;;;;;14.68;10.27;;;;;;;;;;5032518;28;20475;-63
2023/12/28 06:48:21;;;;;;;16.02;10.98;;;;;;;;;;5032205;28;20028;-64
2023/12/28 06:50:47;;;;;;;14.75;10.13;;;;;;;;;;5032143;28;20020;-65
2023/12/28 06:53:13;;;;;;;13.30;9.43;;;;;;;;;;5032201;28;20033;-64
2023/12/28 06:55:39;;;;;;;14.88;10.23;;;;;;;;;;5024359;28;20518;-63
2023/12/28 06:58:07;;;;;;;16.63;10.60;;;;;;;;;;5032176;28;20087;-64
2023/12/28 07:00:33;;;;;;;14.00;9.55;;;;;;;;;;5031736;28;20442;-64
2023/12/28 07:02:59;;;;;;;13.43;9.38;;;;;;;;;;5032243;28;20581;-63
2023/12/28 07:05:25;;;;;;;17.00;9.90;;;;;;;;;;5031601;28;20096;-63
2023/12/28 07:07:51;;;;;;;13.63;9.23;;;;;;;;;;5030224;28;20087;-62
2023/12/28 07:10:17;;;;;;;11.43;8.25;;;;;;;;;;5031456;28;20032;-64
2023/12/28 07:12:42;;;;;;;15.20;9.05;;;;;;;;;;5032129;28;20449;-64
2023/12/28 07:15:13;;;;;;;12.27;8.35;;;;;;;;;;5032005;28;20029;-64
2023/12/28 07:17:39;;;;;;;12.53;7.90;;;;;;;;;;5031683;28;20029;-64
2023/12/28 07:20:05;;;;;;;13.95;8.38;;;;;;;;;;5032246;28;20030;-63
2023/12/28 07:22:32;;;;;;;10.15;6.82;;;;;;;;;;5032870;28;20028;-63
2023/12/28 07:24:58;;;;;;;11.48;7.35;;;;;;;;;;5032752;28;20097;-63
2023/12/28 07:27:24;;;;;;;10.93;7.15;;;;;;;;;;5031113;28;20029;-63
2023/12/28 07:29:50;;;;;;;9.35;6.50;;;;;;;;;;5032323;28;20026;-63
2023/12/28 07:32:16;;;;;;;11.57;7.60;;;;;;;;;;5032591;28;20096;-64
2023/12/28 07:34:42;;;;;;;10.02;6.63;;;;;;;;;;5032120;28;20115;-64
2023/12/28 07:37:08;;;;;;;9.30;6.70;;;;;;;;;;5032334;28;20029;-64
2023/12/28 07:39:34;;;;;;;11.13;6.43;;;;;;;;;;5032018;28;20022;-65
2023/12/28 07:42:00;;;;;;;10.60;6.35;;;;;;;;;;5032604;28;20022;-64
2023/12/28 07:44:27;;;;;;;16.98;7.13;;;;;;;;;;5032248;28;20013;-64
2023/12/28 07:46:53;;;;;;;22.75;6.70;;;;;;;;;;5032103;28;20040;-64
2023/12/28 07:49:19;;;;;;;14.73;6.65;;;;;;;;;;5031479;28;20032;-64
2023/12/28 07:51:45;;;;;;;12.93;6.28;;;;;;;;;;5032595;28;20030;-64
2023/12/28 07:54:11;;;;;;;12.90;6.88;;;;;;;;;;5032605;28;20398;-63
2023/12/28 07:56:37;;;;;;;8.52;6.10;;;;;;;;;;5032050;28;20107;-64
2023/12/28 07:59:03;;;;;;;10.65;6.38;;;;;;;;;;5031713;28;20116;-63
2023/12/28 08:01:29;;;;;;;9.88;7.00;;;;;;;;;;5031416;28;20617;-63
2023/12/28 08:03:55;;;;;;;10.75;6.40;;;;;;;;;;5031695;28;20026;-64
2023/12/28 08:06:21;;;;;;;12.07;6.63;;;;;;;;;;5031730;28;20029;-64
2023/12/28 08:08:48;;;;;;;11.52;7.10;;;;;;;;;;5031570;28;20029;-64
2023/12/28 08:11:13;;;;;;;12.05;6.22;;;;;;;;;;5030578;28;20025;-64
2023/12/28 08:13:40;;;;;;;10.07;6.65;;;;;;;;;;5031347;28;20025;-64
2023/12/28 08:16:06;;;;;;;36.95;9.85;;;;;;;;;;5031568;28;20025;-64
2023/12/28 08:18:32;;;;;;;15.75;9.95;;;;;;;;;;5031145;28;20030;-64
2023/12/28 08:21:00;;;;;;;21.38;9.88;;;;;;;;;;5031497;28;20022;-64
2023/12/28 08:23:25;;;;;;;14.23;8.32;;;;;;;;;;5031305;28;20025;-64
2023/12/28 08:25:52;;;;;;;15.52;8.98;;;;;;;;;;5030764;28;20540;-65
2023/12/28 08:28:17;;;;;;;16.30;9.55;;;;;;;;;;5035878;28;20036;-63
2023/12/28 08:30:44;;;;;;;12.90;8.52;;;;;;;;;;5038069;28;20033;-65
2023/12/28 08:33:10;;;;;;;13.73;9.02;;;;;;;;;;5031091;28;20104;-63
2023/12/28 08:35:36;;;;;;;13.80;8.80;;;;;;;;;;5031376;28;20060;-63
2023/12/28 08:38:02;;;;;;;18.48;11.63;;;;;;;;;;5031299;28;20033;-63
2023/12/28 08:40:30;;;;;;;21.17;13.68;;;;;;;;;;5030662;28;20029;-64
2023/12/28 08:42:56;;;;;;;23.20;14.55;;;;;;;;;;5030947;28;20371;-64
2023/12/28 08:45:22;;;;;;;20.70;14.13;;;;;;;;;;5029375;28;20030;-63
2023/12/28 08:47:48;;;;;;;32.15;12.90;;;;;;;;;;5030618;28;20034;-58
2023/12/28 08:50:15;;;;;;;14.68;5.82;;;;;;;;;;5028574;28;20026;-70
2023/12/28 08:52:41;;;;;;;19.45;11.68;;;;;;;;;;5027201;28;20053;-64
2023/12/28 08:55:07;;;;;;;32.67;13.68;;;;;;;;;;5032952;28;20025;-64
2023/12/28 08:57:33;;;;;;;30.85;13.65;;;;;;;;;;5030449;28;20041;-65
2023/12/28 09:00:03;;;;;;;23.77;12.32;;;;;;;;;;5032808;28;20017;-65
2023/12/28 09:02:29;;;;;;;21.42;12.93;;;;;;;;;;5033809;28;20096;-64
2023/12/28 09:04:55;;;;;;;24.80;12.38;;;;;;;;;;5032696;28;20028;-66
2023/12/28 09:07:21;;;;;;;26.33;11.07;;;;;;;;;;5033693;28;20025;-66
2023/12/28 09:09:47;;;;;;;19.02;12.25;;;;;;;;;;5032578;28;20028;-65
2023/12/28 09:12:13;;;;;;;21.15;11.02;;;;;;;;;;5034001;28;20116;-65
2023/12/28 09:14:39;;;;;;;22.40;11.70;;;;;;;;;;5032784;28;20045;-64
2023/12/28 09:17:05;;;;;;;20.50;12.10;;;;;;;;;;5034199;28;20083;-64
2023/12/28 09:19:31;;;;;;;19.42;11.02;;;;;;;;;;5034023;28;20029;-64
2023/12/28 09:21:57;;;;;;;24.90;12.00;;;;;;;;;;5034382;28;20498;-66
2023/12/28 09:24:23;;;;;;;18.20;11.27;;;;;;;;;;5034391;28;20037;-66
2023/12/28 09:26:49;;;;;;;17.45;11.07;;;;;;;;;;5032466;28;20033;-66
2023/12/28 09:29:15;;;;;;;17.02;9.60;;;;;;;;;;5030949;28;20029;-65
2023/12/28 09:31:41;;;;;;;16.27;9.85;;;;;;;;;;5032026;28;20028;-65
2023/12/28 09:34:07;;;;;;;19.85;11.15;;;;;;;;;;5031888;28;20014;-66
2023/12/28 09:36:33;;;;;;;18.45;9.85;;;;;;;;;;5032945;28;20051;-66
2023/12/28 09:38:59;;;;;;;17.67;9.98;;;;;;;;;;5027366;28;20021;-65
2023/12/28 09:41:30;;;;;;;25.77;11.95;;;;;;;;;;5031576;28;20036;-67
2023/12/28 09:43:59;;;;;;;30.13;11.93;;;;;;;;;;5026494;28;20108;-67
2023/12/28 09:46:26;;;;;;;37.05;11.82;;;;;;;;;;5027944;28;20032;-68
2023/12/28 09:48:56;;;;;;;26.55;9.98;;;;;;;;;;5025654;28;20076;-67
2023/12/28 09:51:22;;;;;;;21.67;10.25;;;;;;;;;;5026834;28;20502;-66
2023/12/28 09:53:48;;;;;;;23.25;9.57;;;;;;;;;;5034638;28;20036;-67
2023/12/28 09:56:14;;;;;;;20.17;9.00;;;;;;;;;;5023903;28;20452;-67
2023/12/28 09:58:40;;;;;;;16.25;8.68;;;;;;;;;;5026027;28;20163;-67
2023/12/28 10:01:07;;;;;;;25.40;9.13;;;;;;;;;;5027229;28;20479;-67
2023/12/28 10:03:33;;;;;;;19.88;9.27;;;;;;;;;;5028795;28;20052;-67
2023/12/28 10:05:59;;;;;;;32.55;9.55;;;;;;;;;;5027551;28;20470;-68
2023/12/28 10:08:25;;;;;;;16.88;8.63;;;;;;;;;;5033660;28;20032;-67
2023/12/28 10:10:53;;;;;;;25.77;9.10;;;;;;;;;;5032955;28;20025;-68
2023/12/28 10:13:19;;;;;;;20.60;8.00;;;;;;;;;;5033739;28;20017;-67
2023/12/28 10:15:45;;;;;;;21.80;8.95;;;;;;;;;;5032704;28;20033;-65
2023/12/28 10:18:12;;;;;;;18.95;8.23;;;;;;;;;;5033117;28;20101;-65
2023/12/28 10:20:38;;;;;;;18.10;7.60;;;;;;;;;;5032242;28;20052;-66
2023/12/28 10:23:04;;;;;;;16.30;8.20;;;;;;;;;;5034175;28;20029;-65
2023/12/28 10:25:32;;;;;;;21.33;7.78;;;;;;;;;;5033104;28;20028;-63
2023/12/28 10:27:59;;;;;;;18.88;7.78;;;;;;;;;;5033169;28;20022;-64
2023/12/28 10:30:24;;;;;;;16.45;6.88;;;;;;;;;;5032608;28;20562;-64
2023/12/28 10:32:51;;;;;;;14.15;7.55;;;;;;;;;;5033008;28;20026;-65
2023/12/28 10:35:17;;;;;;;12.23;5.97;;;;;;;;;;5033149;28;20033;-65
2023/12/28 10:37:43;;;;;;;13.63;6.60;;;;;;;;;;5033019;28;20033;-66
2023/12/28 10:40:14;;;;;;;11.07;6.80;;;;;;;;;;5033031;28;20034;-65
2023/12/28 10:43:01;;;;;;;10.43;6.53;;;;;;;;;;5033207;28;20104;-63
2023/12/28 10:45:28;;;;;;;15.95;6.53;;;;;;;;;;5028769;28;20052;-65
2023/12/28 10:47:57;;;;;;;15.23;6.88;;;;;;;;;;5032727;28;20025;-64
2023/12/28 10:50:24;;;;;;;17.92;7.10;;;;;;;;;;5032637;28;20104;-63
2023/12/28 10:52:53;;;;;;;11.65;5.50;;;;;;;;;;5033058;28;20044;-66
2023/12/28 10:55:28;;;;;;;17.98;7.15;;;;;;;;;;5030673;28;20033;-66
2023/12/28 10:58:11;;;;;;;12.20;6.13;;;;;;;;;;5023621;28;20037;-66
2023/12/28 11:00:42;;;;;;;14.45;6.43;;;;;;;;;;5030666;28;20136;-64
2023/12/28 11:03:09;;;;;;;25.98;6.93;;;;;;;;;;5025623;28;20021;-65
2023/12/28 11:05:36;;;;;;;10.23;4.60;;;;;;;;;;5027080;28;20034;-63
2023/12/28 11:08:03;;;;;;;7.32;4.88;;;;;;;;;;5032450;28;20091;-65
2023/12/28 11:10:30;;;;;;;13.15;5.20;;;;;;;;;;5026071;28;20113;-65
2023/12/28 11:12:57;;;;;;;14.98;5.63;;;;;;;;;;5023642;28;20446;-66
2023/12/28 11:15:24;;;;;;;11.77;5.32;;;;;;;;;;5026354;28;20083;-65
2023/12/28 11:17:50;;;;;;;14.43;5.72;;;;;;;;;;5027191;28;20037;-65
2023/12/28 11:20:16;;;;;;;16.90;5.57;;;;;;;;;;5028491;28;20128;-64
2023/12/28 11:22:43;;;;;;;10.85;5.07;;;;;;;;;;5028084;28;20026;-64
2023/12/28 11:25:16;;;;;;;11.60;5.30;;;;;;;;;;5028751;28;20501;-65
2023/12/28 11:27:42;;;;;;;13.80;4.72;;;;;;;;;;5024121;28;20450;-65
2023/12/28 11:30:10;;;;;;;14.65;5.05;;;;;;;;;;5031402;28;20501;-66
2023/12/28 11:32:36;;;;;;;16.42;4.55;;;;;;;;;;5031853;28;20026;-64
2023/12/28 11:35:02;;;;;;;9.70;4.63;;;;;;;;;;5032404;28;20049;-65
2023/12/28 11:37:30;;;;;;;15.07;5.00;;;;;;;;;;5031515;28;20443;-64
2023/12/28 11:39:57;;;;;;;6.75;3.65;;;;;;;;;;5031797;28;20041;-65
2023/12/28 11:42:24;;;;;;;13.23;4.70;;;;;;;;;;5031677;28;20071;-65
2023/12/28 11:44:54;;;;;;;8.75;4.55;;;;;;;;;;5030473;28;20045;-65
2023/12/28 11:47:24;;;;;;;11.90;4.40;;;;;;;;;;5031755;28;20100;-65
2023/12/28 11:49:56;;;;;;;13.10;5.28;;;;;;;;;;5030762;28;20025;-65
2023/12/28 11:52:26;;;;;;;12.40;4.40;;;;;;;;;;5031449;28;20117;-65
2023/12/28 11:54:52;;;;;;;17.15;4.95;;;;;;;;;;5031360;28;20025;-65
2023/12/28 11:57:18;;;;;;;7.35;4.05;;;;;;;;;;5031673;28;20174;-66
2023/12/28 11:59:44;;;;;;;8.48;4.45;;;;;;;;;;5031329;28;20116;-65
2023/12/28 12:02:11;;;;;;;13.40;5.00;;;;;;;;;;5031592;28;20025;-63
2023/12/28 12:04:37;;;;;;;21.65;4.22;;;;;;;;;;5031434;28;20023;-63
2023/12/28 12:07:04;;;;;;;16.25;4.32;;;;;;;;;;5031325;28;20029;-62
2023/12/28 12:09:34;;;;;;;17.35;5.22;;;;;;;;;;5030981;28;20347;-62
2023/12/28 12:12:00;;;;;;;15.07;4.47;;;;;;;;;;5031263;28;20496;-62
2023/12/28 12:14:26;;;;;;;25.58;4.53;;;;;;;;;;5023268;28;20483;-65
2023/12/28 12:16:52;;;;;;;16.10;4.50;;;;;;;;;;5023673;28;20065;-65
2023/12/28 12:19:18;;;;;;;23.65;4.80;;;;;;;;;;5030586;28;20447;-65
2023/12/28 12:21:44;;;;;;;10.43;4.35;;;;;;;;;;5030994;28;21430;-66
2023/12/28 12:24:11;;;;;;;16.95;4.60;;;;;;;;;;5031192;28;20021;-66
2023/12/28 12:26:37;;;;;;;21.35;4.32;;;;;;;;;;5031068;28;20014;-66
2023/12/28 12:29:03;;;;;;;33.13;4.38;;;;;;;;;;5030679;28;20453;-67
2023/12/28 12:31:29;;;;;;;22.23;4.63;;;;;;;;;;5030824;28;20100;-66
2023/12/28 12:33:55;;;;;;;22.38;4.82;;;;;;;;;;5031187;28;20719;-66
2023/12/28 12:36:21;;;;;;;27.40;4.88;;;;;;;;;;5030810;28;20025;-65
2023/12/28 12:38:48;;;;;;;104.25;62.80;;;;;;;;;;5030303;28;20034;-65
2023/12/28 12:41:14;;;;;;;78.53;46.25;;;;;;;;;;5030888;28;20022;-65
2023/12/28 12:43:43;;;;;;;64.05;35.42;;;;;;;;;;5030816;28;20024;-65
2023/12/28 12:46:09;;;;;;;46.60;26.95;;;;;;;;;;5030805;28;20053;-65
2023/12/28 12:48:35;;;;;;;52.22;22.88;;;;;;;;;;5025213;28;20096;-65
2023/12/28 12:51:04;;;;;;;36.17;21.85;;;;;;;;;;5026726;28;20114;-65
2023/12/28 12:53:34;;;;;;;41.83;24.30;;;;;;;;;;5023501;28;20037;-65
2023/12/28 12:56:00;;;;;;;40.58;23.65;;;;;;;;;;5030915;28;20017;-65
2023/12/28 12:58:27;;;;;;;41.33;24.38;;;;;;;;;;5029278;28;20029;-65
2023/12/28 13:00:53;;;;;;;40.67;24.48;;;;;;;;;;5030655;28;20025;-65
2023/12/28 13:03:20;;;;;;;42.35;24.55;;;;;;;;;;5024580;28;20017;-65
2023/12/28 13:05:46;;;;;;;44.20;25.17;;;;;;;;;;5024893;28;20021;-65
2023/12/28 13:08:13;;;;;;;42.60;26.02;;;;;;;;;;5023180;28;20486;-64
2023/12/28 13:10:39;;;;;;;44.70;26.55;;;;;;;;;;5023333;28;20130;-65
2023/12/28 13:13:07;;;;;;;48.30;26.98;;;;;;;;;;5022718;28;20025;-65
2023/12/28 13:15:33;;;;;;;49.00;28.13;;;;;;;;;;5025082;28;20423;-65
2023/12/28 13:17:59;;;;;;;42.60;26.90;;;;;;;;;;5024966;28;20034;-65
2023/12/28 13:20:26;;;;;;;55.60;34.22;;;;;;;;;;5030293;28;20447;-65
2023/12/28 13:22:52;;;;;;;115.38;70.93;;;;;;;;;;5029756;28;20084;-65
2023/12/28 13:25:18;;;;;;;113.22;66.57;;;;;;;;;;5030293;28;20036;-64
2023/12/28 13:27:44;;;;;;;102.00;61.78;;;;;;;;;;5030341;28;20025;-65
2023/12/28 13:30:11;;;;;;;118.93;70.47;;;;;;;;;;5029755;28;20029;-64
2023/12/28 13:32:37;;;;;;;111.63;72.35;;;;;;;;;;5030237;28;20029;-66
2023/12/28 13:35:04;;;;;;;138.93;85.05;;;;;;;;;;5030132;28;20041;-67
2023/12/28 13:37:30;;;;;;;126.65;76.07;;;;;;;;;;5030037;28;20156;-67
2023/12/28 13:39:56;;;;;;;128.75;75.05;;;;;;;;;;5030086;28;20108;-67
2023/12/28 13:42:23;;;;;;;117.70;76.00;;;;;;;;;;5029306;28;20026;-67
2023/12/28 13:44:49;;;;;;;120.72;76.25;;;;;;;;;;5030750;28;20099;-65
2023/12/28 13:47:15;;;;;;;112.88;72.22;;;;;;;;;;5032770;28;20056;-64
2023/12/28 13:49:41;;;;;;;115.55;74.30;;;;;;;;;;5032838;28;20508;-64
2023/12/28 13:52:07;;;;;;;116.68;71.75;;;;;;;;;;5033017;28;20390;-64
2023/12/28 13:54:32;;;;;;;113.95;73.00;;;;;;;;;;5032796;28;20098;-64
2023/12/28 13:57:00;;;;;;;116.07;70.00;;;;;;;;;;5032933;28;20059;-64
2023/12/28 13:59:26;;;;;;;113.18;70.60;;;;;;;;;;5032732;28;20028;-64
2023/12/28 14:01:52;;;;;;;107.60;68.45;;;;;;;;;;5033783;28;20013;-64
2023/12/28 14:04:18;;;;;;;105.30;67.70;;;;;;;;;;5033075;28;20595;-64
2023/12/28 14:06:44;;;;;;;108.07;68.53;;;;;;;;;;5033283;28;20096;-65
2023/12/28 14:09:11;;;;;;;102.97;65.25;;;;;;;;;;5033090;28;20033;-64
2023/12/28 14:11:37;;;;;;;103.10;67.05;;;;;;;;;;5032861;28;20025;-65
2023/12/28 14:14:03;;;;;;;107.45;63.65;;;;;;;;;;5032995;28;20041;-64
2023/12/28 14:16:29;;;;;;;102.68;65.30;;;;;;;;;;5033824;28;20491;-65